createdAt,value
2022-08-21T00:00:25.616Z,16.63
2022-08-21T00:02:56.345Z,16.60
2022-08-21T00:05:24.257Z,16.57
2022-08-21T00:07:50.855Z,16.57
2022-08-21T00:10:18.132Z,16.55
2022-08-21T00:12:46.350Z,16.53
2022-08-21T00:15:16.020Z,16.51
2022-08-21T00:17:42.562Z,16.46
2022-08-21T00:20:11.183Z,16.47
2022-08-21T00:22:37.888Z,16.44
2022-08-21T00:25:06.786Z,16.43
2022-08-21T00:27:34.129Z,16.41
2022-08-21T00:30:00.609Z,16.41
2022-08-21T00:32:28.648Z,16.40
2022-08-21T00:34:55.925Z,16.39
2022-08-21T00:37:23.057Z,16.37
2022-08-21T00:39:50.406Z,16.33
2022-08-21T00:42:18.489Z,16.32
2022-08-21T00:44:50.786Z,16.33
2022-08-21T00:47:19.514Z,16.33
2022-08-21T00:49:46.181Z,16.33
2022-08-21T00:52:20.213Z,16.33
2022-08-21T00:54:49.045Z,16.31
2022-08-21T00:57:21.856Z,16.31
2022-08-21T00:59:54.686Z,16.29
2022-08-21T01:02:21.553Z,16.23
2022-08-21T01:04:48.609Z,16.20
2022-08-21T01:07:15.764Z,16.17
2022-08-21T01:09:42.776Z,16.11
2022-08-21T01:14:45.597Z,16.01
2022-08-21T01:17:14.870Z,16.00
2022-08-21T01:19:41.614Z,15.98
2022-08-21T01:22:08.466Z,15.99
2022-08-21T01:24:35.013Z,15.97
2022-08-21T01:27:02.321Z,16.01
2022-08-21T01:29:52.180Z,16.05
2022-08-21T01:32:20.765Z,16.08
2022-08-21T01:34:50.085Z,16.12
2022-08-21T01:37:17.790Z,16.13
2022-08-21T01:39:45.408Z,16.17
2022-08-21T01:42:12.581Z,16.16
2022-08-21T01:44:39.244Z,16.17
2022-08-21T01:47:09.985Z,16.19
2022-08-21T01:49:38.031Z,16.18
2022-08-21T01:52:06.035Z,16.16
2022-08-21T01:54:36.630Z,16.13
2022-08-21T01:57:03.846Z,16.13
2022-08-21T01:59:31.300Z,16.13
2022-08-21T02:01:58.355Z,16.13
2022-08-21T02:04:25.151Z,16.13
2022-08-21T02:06:51.842Z,16.10
2022-08-21T02:09:19.371Z,16.06
2022-08-21T02:11:46.898Z,16.00
2022-08-21T02:14:15.300Z,15.94
2022-08-21T02:17:05.066Z,15.85
2022-08-21T02:19:39.569Z,15.77
2022-08-21T02:22:07.428Z,15.72
2022-08-21T02:24:33.943Z,15.68
2022-08-21T02:27:00.477Z,15.64
2022-08-21T02:29:26.882Z,15.60
2022-08-21T02:31:54.043Z,15.56
2022-08-21T02:34:20.500Z,15.54
2022-08-21T02:36:46.956Z,15.51
2022-08-21T02:39:27.421Z,15.46
2022-08-21T02:41:54.361Z,15.41
2022-08-21T02:44:20.982Z,15.39
2022-08-21T02:46:56.648Z,15.33
2022-08-21T02:49:23.070Z,15.29
2022-08-21T02:51:49.517Z,15.25
2022-08-21T02:54:15.944Z,15.22
2022-08-21T02:56:42.384Z,15.18
2022-08-21T02:59:08.828Z,15.14
2022-08-21T03:01:35.272Z,15.14
2022-08-21T03:04:01.708Z,15.11
2022-08-21T03:06:28.148Z,15.06
2022-08-21T03:08:54.718Z,15.02
2022-08-21T03:11:21.816Z,15.01
2022-08-21T03:13:48.312Z,14.99
2022-08-21T03:16:15.245Z,15.00
2022-08-21T03:18:41.673Z,14.99
2022-08-21T03:21:08.326Z,14.99
2022-08-21T03:23:34.859Z,14.95
2022-08-21T03:26:01.906Z,14.95
2022-08-21T03:28:29.157Z,14.93
2022-08-21T03:30:56.323Z,14.92
2022-08-21T03:33:23.544Z,14.93
2022-08-21T03:35:59.552Z,14.91
2022-08-21T03:38:27.448Z,14.88
2022-08-21T03:40:54.375Z,14.89
2022-08-21T03:43:21.253Z,14.88
2022-08-21T03:45:47.932Z,14.86
2022-08-21T03:48:15.322Z,14.84
2022-08-21T03:50:44.134Z,14.84
2022-08-21T03:53:16.488Z,14.83
2022-08-21T03:55:48.975Z,14.82
2022-08-21T03:58:17.863Z,14.81
2022-08-21T04:00:49.836Z,14.80
2022-08-21T04:03:17.125Z,14.80
2022-08-21T04:05:43.748Z,14.79
2022-08-21T04:08:10.216Z,14.77
2022-08-21T04:10:38.933Z,14.71
2022-08-21T04:13:07.878Z,14.70
2022-08-21T04:15:34.953Z,14.66
2022-08-21T04:18:01.420Z,14.63
2022-08-21T04:20:28.325Z,14.61
2022-08-21T04:22:56.126Z,14.58
2022-08-21T04:25:23.755Z,14.57
2022-08-21T04:27:50.297Z,14.56
2022-08-21T04:30:17.594Z,14.54
2022-08-21T04:32:46.414Z,14.54
2022-08-21T04:35:14.431Z,14.51
2022-08-21T04:37:42.183Z,14.51
2022-08-21T04:40:11.014Z,14.50
2022-08-21T04:42:45.447Z,14.49
2022-08-21T04:45:28.189Z,14.46
2022-08-21T04:47:57.492Z,14.44
2022-08-21T04:50:30.035Z,14.43
2022-08-21T04:52:56.776Z,14.41
2022-08-21T04:55:25.255Z,14.40
2022-08-21T04:57:54.478Z,14.39
2022-08-21T05:00:22.756Z,14.38
2022-08-21T05:02:50.037Z,14.41
2022-08-21T05:05:17.079Z,14.44
2022-08-21T05:07:45.069Z,14.45
2022-08-21T05:10:12.396Z,14.46
2022-08-21T05:12:42.793Z,14.46
2022-08-21T05:15:13.309Z,14.47
2022-08-21T05:17:41.770Z,14.47
2022-08-21T05:20:12.287Z,14.48
2022-08-21T05:22:39.101Z,14.46
2022-08-21T05:25:10.293Z,14.48
2022-08-21T05:27:37.980Z,14.49
2022-08-21T05:30:08.477Z,14.50
2022-08-21T05:32:35.870Z,14.51
2022-08-21T05:35:03.702Z,14.53
2022-08-21T05:37:30.174Z,14.56
2022-08-21T05:40:20.579Z,14.57
2022-08-21T05:42:43.346Z,14.58
2022-08-21T05:45:09.850Z,14.62
2022-08-21T05:47:36.481Z,14.67
2022-08-21T05:50:04.012Z,14.71
2022-08-21T05:52:30.517Z,14.75
2022-08-21T05:54:57.012Z,14.80
2022-08-21T05:57:24.236Z,14.86
2022-08-21T05:59:51.349Z,14.91
2022-08-21T06:02:19.263Z,14.97
2022-08-21T06:04:45.852Z,15.03
2022-08-21T06:07:12.837Z,15.10
2022-08-21T06:09:39.274Z,15.17
2022-08-21T06:12:11.505Z,15.28
2022-08-21T06:14:39.898Z,15.39
2022-08-21T06:17:08.681Z,15.49
2022-08-21T06:19:35.650Z,15.60
2022-08-21T06:22:02.986Z,15.73
2022-08-21T06:24:29.645Z,15.86
2022-08-21T06:26:56.502Z,15.98
2022-08-21T06:29:23.603Z,16.12
2022-08-21T06:31:52.117Z,16.24
2022-08-21T06:34:19.150Z,16.39
2022-08-21T06:36:45.613Z,16.52
2022-08-21T06:39:16.397Z,16.66
2022-08-21T06:41:52.270Z,16.79
2022-08-21T06:44:19.945Z,16.92
2022-08-21T06:46:46.531Z,17.05
2022-08-21T06:49:21.272Z,17.18
2022-08-21T06:51:48.279Z,17.28
2022-08-21T06:54:14.760Z,17.39
2022-08-21T06:56:41.203Z,17.51
2022-08-21T06:59:07.644Z,17.63
2022-08-21T07:01:34.086Z,17.72
2022-08-21T07:04:00.581Z,17.83
2022-08-21T07:06:26.984Z,17.92
2022-08-21T07:08:53.813Z,18.04
2022-08-21T07:11:24.197Z,18.13
2022-08-21T07:13:53.635Z,18.22
2022-08-21T07:16:24.161Z,18.31
2022-08-21T07:18:50.715Z,18.39
2022-08-21T07:21:17.274Z,18.49
2022-08-21T07:23:47.765Z,18.61
2022-08-21T07:26:17.104Z,18.68
2022-08-21T07:28:45.894Z,18.76
2022-08-21T07:31:14.997Z,18.85
2022-08-21T07:33:42.229Z,18.94
2022-08-21T07:36:09.429Z,19.07
2022-08-21T07:38:36.491Z,19.17
2022-08-21T07:41:07.832Z,19.25
2022-08-21T07:43:34.315Z,19.31
2022-08-21T07:46:00.832Z,19.40
2022-08-21T07:48:27.380Z,19.51
2022-08-21T07:50:53.914Z,19.61
2022-08-21T07:53:20.328Z,19.73
2022-08-21T07:55:46.728Z,19.80
2022-08-21T07:58:13.774Z,19.92
2022-08-21T08:00:41.240Z,20.02
2022-08-21T08:03:07.726Z,20.13
2022-08-21T08:05:36.176Z,20.21
2022-08-21T08:08:02.784Z,20.31
2022-08-21T08:10:29.264Z,20.42
2022-08-21T08:12:56.138Z,20.54
2022-08-21T08:15:25.895Z,20.67
2022-08-21T08:17:53.258Z,20.76
2022-08-21T08:20:21.056Z,20.86
2022-08-21T08:22:50.177Z,21.00
2022-08-21T08:25:19.538Z,21.13
2022-08-21T08:27:46.009Z,21.27
2022-08-21T08:30:15.014Z,21.35
2022-08-21T08:32:42.130Z,21.50
2022-08-21T08:35:09.894Z,21.64
2022-08-21T08:37:41.313Z,21.76
2022-08-21T08:40:19.265Z,21.91
2022-08-21T08:42:48.265Z,22.03
2022-08-21T08:45:19.313Z,22.14
2022-08-21T08:47:50.162Z,22.28
2022-08-21T08:50:22.615Z,22.35
2022-08-21T08:52:58.700Z,22.46
2022-08-21T08:55:37.197Z,22.56
2022-08-21T08:58:04.946Z,22.69
2022-08-21T09:00:32.571Z,22.76
2022-08-21T09:03:01.944Z,22.83
2022-08-21T09:05:34.685Z,22.95
2022-08-21T09:08:01.050Z,23.06
2022-08-21T09:10:46.523Z,23.17
2022-08-21T09:13:50.823Z,23.27
2022-08-21T09:16:35.988Z,23.42
2022-08-21T09:19:14.002Z,23.53
2022-08-21T09:22:04.040Z,23.63
2022-08-21T09:24:52.147Z,23.73
2022-08-21T09:27:20.450Z,23.87
2022-08-21T09:29:49.498Z,24.01
2022-08-21T09:32:19.902Z,24.15
2022-08-21T09:35:05.321Z,24.29
2022-08-21T09:37:36.341Z,24.40
2022-08-21T09:40:16.456Z,24.52
2022-08-21T09:42:42.987Z,24.65
2022-08-21T09:45:16.758Z,24.84
2022-08-21T09:47:44.921Z,25.01
2022-08-21T09:50:15.935Z,25.14
2022-08-21T09:52:49.047Z,25.30
2022-08-21T09:55:42.588Z,25.45
2022-08-21T09:58:10.801Z,25.56
2022-08-21T10:00:37.624Z,25.71
2022-08-21T10:03:19.738Z,25.82
2022-08-21T10:06:01.364Z,25.91
2022-08-21T10:08:30.175Z,25.90
2022-08-21T10:11:03.768Z,26.01
2022-08-21T10:13:58.514Z,26.21
2022-08-21T10:16:40.320Z,26.32
2022-08-21T10:19:17.412Z,26.44
2022-08-21T10:21:46.929Z,26.58
2022-08-21T10:24:33.983Z,26.69
2022-08-21T10:27:31.609Z,26.60
2022-08-21T10:30:02.801Z,26.77
2022-08-21T10:32:42.087Z,27.05
2022-08-21T10:35:33.155Z,27.34
2022-08-21T10:38:16.415Z,27.47
2022-08-21T10:41:28.860Z,27.63
2022-08-21T10:44:13.686Z,27.83
2022-08-21T10:46:49.849Z,27.99
2022-08-21T10:49:26.154Z,28.15
2022-08-21T10:52:14.568Z,28.41
2022-08-21T10:54:58.749Z,28.59
2022-08-21T10:57:37.552Z,28.73
2022-08-21T11:00:12.662Z,28.94
2022-08-21T11:02:57.545Z,29.18
2022-08-21T11:05:39.636Z,29.32
2022-08-21T11:08:23.130Z,29.49
2022-08-21T11:10:59.268Z,29.60
2022-08-21T11:13:54.986Z,29.65
2022-08-21T11:16:27.257Z,29.55
2022-08-21T11:19:01.881Z,29.49
2022-08-21T11:21:37.181Z,29.69
2022-08-21T11:24:16.054Z,29.87
2022-08-21T11:26:51.292Z,30.05
2022-08-21T11:29:29.621Z,30.27
2022-08-21T11:32:33.743Z,30.43
2022-08-21T11:35:18.973Z,30.58
2022-08-21T11:37:45.305Z,30.66
2022-08-21T11:40:48.873Z,30.80
2022-08-21T11:43:28.637Z,30.86
2022-08-21T11:46:00.866Z,30.98
2022-08-21T11:48:44.439Z,31.12
2022-08-21T11:51:23.836Z,31.17
2022-08-21T11:54:00.203Z,31.33
2022-08-21T11:56:34.722Z,31.36
2022-08-21T11:59:07.819Z,31.42
2022-08-21T12:01:41.159Z,31.43
2022-08-21T12:04:11.036Z,31.49
2022-08-21T12:06:41.435Z,31.61
2022-08-21T12:09:11.065Z,31.73
2022-08-21T12:12:02.735Z,31.87
2022-08-21T12:14:47.361Z,32.03
2022-08-21T12:17:35.186Z,32.25
2022-08-21T12:20:17.987Z,32.22
2022-08-21T12:22:53.463Z,32.38
2022-08-21T12:25:23.224Z,32.31
2022-08-21T12:28:11.631Z,32.37
2022-08-21T12:30:46.153Z,32.50
2022-08-21T12:33:24.370Z,32.57
2022-08-21T12:35:53.696Z,32.37
2022-08-21T12:38:24.813Z,32.70
2022-08-21T12:41:02.768Z,32.83
2022-08-21T12:43:35.712Z,33.14
2022-08-21T12:46:05.420Z,33.45
2022-08-21T12:48:44.805Z,33.39
2022-08-21T12:51:14.361Z,33.52
2022-08-21T12:53:56.508Z,33.82
2022-08-21T12:56:31.194Z,33.97
2022-08-21T12:59:07.538Z,34.17
2022-08-21T13:01:46.015Z,34.29
2022-08-21T13:04:18.413Z,34.46
2022-08-21T13:06:48.548Z,34.67
2022-08-21T13:09:17.927Z,34.78
2022-08-21T13:11:46.875Z,34.80
2022-08-21T13:14:35.891Z,34.30
2022-08-21T13:17:12.569Z,34.17
2022-08-21T13:19:39.129Z,33.98
2022-08-21T13:22:34.122Z,34.20
2022-08-21T13:25:01.703Z,34.35
2022-08-21T13:27:33.329Z,34.62
2022-08-21T13:30:15.626Z,34.89
2022-08-21T13:32:51.124Z,34.40
2022-08-21T13:35:21.538Z,34.25
2022-08-21T13:37:50.751Z,34.16
2022-08-21T13:40:21.176Z,34.11
2022-08-21T13:42:49.285Z,33.86
2022-08-21T13:45:25.093Z,33.84
2022-08-21T13:47:54.020Z,33.97
2022-08-21T13:50:23.936Z,34.32
2022-08-21T13:53:05.051Z,34.55
2022-08-21T13:55:40.980Z,34.85
2022-08-21T13:58:08.149Z,35.04
2022-08-21T14:00:44.334Z,35.25
2022-08-21T14:03:12.263Z,35.16
2022-08-21T14:05:46.283Z,34.76
2022-08-21T14:08:30.315Z,34.83
2022-08-21T14:10:58.008Z,34.87
2022-08-21T14:13:38.669Z,34.69
2022-08-21T14:16:11.767Z,34.94
2022-08-21T14:18:51.110Z,35.11
2022-08-21T14:21:29.344Z,35.30
2022-08-21T14:24:08.716Z,35.54
2022-08-21T14:26:43.362Z,35.47
2022-08-21T14:29:10.779Z,35.28
2022-08-21T14:31:43.227Z,35.65
2022-08-21T14:34:19.294Z,35.64
2022-08-21T14:36:47.850Z,35.60
2022-08-21T14:39:14.327Z,35.43
2022-08-21T14:41:41.092Z,35.16
2022-08-21T14:44:09.531Z,35.37
2022-08-21T14:46:45.788Z,35.44
2022-08-21T14:49:23.905Z,35.85
2022-08-21T14:51:54.681Z,36.20
2022-08-21T14:54:23.258Z,36.33
2022-08-21T14:57:00.521Z,35.86
2022-08-21T14:59:26.952Z,35.43
2022-08-21T15:01:53.443Z,34.74
2022-08-21T15:04:20.018Z,34.26
2022-08-21T15:06:46.459Z,33.82
2022-08-21T15:09:12.856Z,33.51
2022-08-21T15:11:41.761Z,33.04
2022-08-21T15:14:21.733Z,32.85
2022-08-21T15:16:49.467Z,32.59
2022-08-21T15:19:15.874Z,32.38
2022-08-21T15:21:42.375Z,32.19
2022-08-21T15:24:08.784Z,31.99
2022-08-21T15:26:36.910Z,31.79
2022-08-21T15:29:06.678Z,31.69
2022-08-21T15:31:33.740Z,31.56
2022-08-21T15:34:00.162Z,31.50
2022-08-21T15:36:26.601Z,31.30
2022-08-21T15:38:53.079Z,31.14
2022-08-21T15:41:19.848Z,31.11
2022-08-21T15:43:50.047Z,31.20
2022-08-21T15:46:19.004Z,31.22
2022-08-21T15:48:47.120Z,31.07
2022-08-21T15:51:15.387Z,30.95
2022-08-21T15:53:41.829Z,30.77
2022-08-21T15:56:21.874Z,30.55
2022-08-21T15:58:48.815Z,30.33
2022-08-21T16:01:15.307Z,30.14
2022-08-21T16:03:43.189Z,30.01
2022-08-21T16:06:09.620Z,29.94
2022-08-21T16:08:36.096Z,29.76
2022-08-21T16:11:02.657Z,29.64
2022-08-21T16:13:33.542Z,29.49
2022-08-21T16:16:00.149Z,29.40
2022-08-21T16:18:27.360Z,29.51
2022-08-21T16:20:53.999Z,29.58
2022-08-21T16:23:20.397Z,29.56
2022-08-21T16:25:47.583Z,29.47
2022-08-21T16:28:16.557Z,29.31
2022-08-21T16:30:47.196Z,29.15
2022-08-21T16:33:27.833Z,29.03
2022-08-21T16:35:54.484Z,28.94
2022-08-21T16:38:20.950Z,28.88
2022-08-21T16:40:47.552Z,28.73
2022-08-21T16:43:14.022Z,28.64
2022-08-21T16:45:42.176Z,28.50
2022-08-21T16:48:09.733Z,28.45
2022-08-21T16:50:37.822Z,28.37
2022-08-21T16:53:04.616Z,28.29
2022-08-21T16:55:31.348Z,28.23
2022-08-21T16:57:57.902Z,28.17
2022-08-21T17:00:24.468Z,28.16
2022-08-21T17:02:54.660Z,28.13
2022-08-21T17:05:21.208Z,27.96
2022-08-21T17:07:47.820Z,27.85
2022-08-21T17:10:16.689Z,27.73
2022-08-21T17:12:46.449Z,27.63
2022-08-21T17:15:24.711Z,27.49
2022-08-21T17:17:51.950Z,27.45
2022-08-21T17:20:19.849Z,27.27
2022-08-21T17:22:46.330Z,27.15
2022-08-21T17:25:13.004Z,27.07
2022-08-21T17:27:40.210Z,27.05
2022-08-21T17:30:08.045Z,26.94
2022-08-21T17:32:34.605Z,26.82
2022-08-21T17:35:01.089Z,26.75
2022-08-21T17:37:29.416Z,26.71
2022-08-21T17:39:56.603Z,26.67
2022-08-21T17:42:25.128Z,26.59
2022-08-21T17:44:51.844Z,26.50
2022-08-21T17:47:18.289Z,26.41
2022-08-21T17:49:44.739Z,26.35
2022-08-21T17:52:11.557Z,26.28
2022-08-21T17:54:38.032Z,26.21
2022-08-21T17:57:05.000Z,26.11
2022-08-21T17:59:32.293Z,26.04
2022-08-21T18:02:01.636Z,26.03
2022-08-21T18:04:29.529Z,26.02
2022-08-21T18:06:56.241Z,26.02
2022-08-21T18:09:28.812Z,25.98
2022-08-21T18:11:57.164Z,25.94
2022-08-21T18:14:28.663Z,25.88
2022-08-21T18:16:56.304Z,25.80
2022-08-21T18:19:25.925Z,25.74
2022-08-21T18:21:56.236Z,25.68
2022-08-21T18:24:23.603Z,25.60
2022-08-21T18:26:50.448Z,25.50
2022-08-21T18:29:20.699Z,25.48
2022-08-21T18:31:47.715Z,25.39
2022-08-21T18:34:35.625Z,25.31
2022-08-21T18:37:02.949Z,25.25
2022-08-21T18:39:38.000Z,25.21
2022-08-21T18:42:10.073Z,25.15
2022-08-21T18:44:37.497Z,25.07
2022-08-21T18:47:11.880Z,25.05
2022-08-21T18:49:39.016Z,25.00
2022-08-21T18:52:08.126Z,24.97
2022-08-21T18:54:37.334Z,24.94
2022-08-21T18:59:54.217Z,24.89
2022-08-21T19:02:20.714Z,24.88
2022-08-21T19:04:47.984Z,24.84
2022-08-21T19:07:16.145Z,24.82
2022-08-21T19:12:30.312Z,24.75
2022-08-21T19:14:58.195Z,24.69
2022-08-21T19:17:25.033Z,24.63
2022-08-21T19:19:52.269Z,24.53
2022-08-21T19:22:19.673Z,24.47
2022-08-21T19:24:49.875Z,24.37
2022-08-21T19:27:17.404Z,24.29
2022-08-21T19:29:43.937Z,24.17
2022-08-21T19:32:10.991Z,24.09
2022-08-21T19:34:39.884Z,23.99
2022-08-21T19:37:06.583Z,23.90
2022-08-21T19:39:39.489Z,23.82
2022-08-21T19:42:10.208Z,23.73
2022-08-21T19:44:37.912Z,23.62
2022-08-21T19:47:13.255Z,23.53
2022-08-21T19:49:49.960Z,23.42
2022-08-21T19:52:16.503Z,23.32
2022-08-21T19:54:44.636Z,23.23
2022-08-21T19:57:12.136Z,23.13
2022-08-21T19:59:40.551Z,23.05
2022-08-21T20:02:07.836Z,22.94
2022-08-21T20:04:34.375Z,22.79
2022-08-21T20:07:01.141Z,22.70
2022-08-21T20:09:27.921Z,22.59
2022-08-21T20:11:57.776Z,22.51
2022-08-21T20:14:31.072Z,22.41
2022-08-21T20:17:05.838Z,22.34
2022-08-21T20:19:32.400Z,22.26
2022-08-21T20:21:58.891Z,22.16
2022-08-21T20:24:27.462Z,22.09
2022-08-21T20:26:55.058Z,22.02
2022-08-21T20:29:24.510Z,21.98
2022-08-21T20:31:56.274Z,21.89
2022-08-21T20:34:22.954Z,21.77
2022-08-21T20:36:52.229Z,21.69
2022-08-21T20:39:19.905Z,21.60
2022-08-21T20:41:51.565Z,21.55
2022-08-21T20:44:18.063Z,21.46
2022-08-21T20:46:44.914Z,21.42
2022-08-21T20:49:17.434Z,21.37
2022-08-21T20:51:51.488Z,21.30
2022-08-21T20:54:29.689Z,21.25
2022-08-21T20:57:18.191Z,21.22
2022-08-21T20:59:50.680Z,21.16
2022-08-21T21:02:29.171Z,21.12
2022-08-21T21:05:02.882Z,21.07
2022-08-21T21:07:54.884Z,21.03
2022-08-21T21:10:36.619Z,20.97
2022-08-21T21:13:13.581Z,20.94
2022-08-21T21:15:43.389Z,20.87
2022-08-21T21:18:16.625Z,20.85
2022-08-21T21:20:51.736Z,20.80
2022-08-21T21:23:38.902Z,20.75
2022-08-21T21:26:22.097Z,20.72
2022-08-21T21:29:10.493Z,20.69
2022-08-21T21:31:37.322Z,20.66
2022-08-21T21:34:03.891Z,20.68
2022-08-21T21:36:56.432Z,20.65
2022-08-21T21:39:36.405Z,20.61
2022-08-21T21:42:38.578Z,20.55
2022-08-21T21:45:26.680Z,20.51
2022-08-21T21:48:00.708Z,20.50
2022-08-21T21:50:50.947Z,20.48
2022-08-21T21:53:28.461Z,20.47
2022-08-21T21:56:07.122Z,20.46
2022-08-21T21:58:59.748Z,20.44
2022-08-21T22:01:40.848Z,20.41
2022-08-21T22:04:56.786Z,20.41
2022-08-21T22:07:40.148Z,20.38
2022-08-21T22:13:26.373Z,20.32
2022-08-21T22:15:54.589Z,20.31
2022-08-21T22:18:26.157Z,20.32
2022-08-21T22:20:58.219Z,20.32
2022-08-21T22:23:30.058Z,20.31
2022-08-21T22:26:05.471Z,20.32
2022-08-21T22:28:37.637Z,20.30
2022-08-21T22:31:12.286Z,20.29
2022-08-21T22:33:41.126Z,20.29
2022-08-21T22:36:18.320Z,20.31
2022-08-21T22:38:46.381Z,20.27
2022-08-21T22:41:27.949Z,20.26
2022-08-21T22:44:03.939Z,20.24
2022-08-21T22:46:44.882Z,20.22
2022-08-21T22:49:21.710Z,20.19
2022-08-21T22:52:05.255Z,20.16
2022-08-21T22:54:38.664Z,20.14
2022-08-21T22:57:09.042Z,20.14
2022-08-21T22:59:52.737Z,20.13
2022-08-21T23:02:30.535Z,20.08
2022-08-21T23:05:00.833Z,20.03
2022-08-21T23:07:43.710Z,19.98
2022-08-21T23:10:32.806Z,19.93
2022-08-21T23:13:09.175Z,19.90
2022-08-21T23:15:59.132Z,19.85
2022-08-21T23:19:02.667Z,19.80
2022-08-21T23:21:52.310Z,19.73
2022-08-21T23:24:27.506Z,19.67
2022-08-21T23:27:13.520Z,19.64
2022-08-21T23:30:02.062Z,19.61
2022-08-21T23:33:11.580Z,19.58
2022-08-21T23:36:07.707Z,19.55
2022-08-21T23:41:42.401Z,19.48
2022-08-21T23:44:31.233Z,19.48
2022-08-21T23:47:06.097Z,19.44
2022-08-21T23:49:53.804Z,19.44
2022-08-21T23:52:48.895Z,19.39
2022-08-21T23:55:20.435Z,19.36
2022-08-21T23:58:18.818Z,19.36
